sensor_id;sensor_type;location;lat;lon;timestamp;pressure;altitude;pressure_sealevel;temperature;humidity
17254;BME280;32542;52.832;13.816;2023-05-23T00:01:39;101187.59;;;22.48;44.93
17254;BME280;32542;52.832;13.816;2023-05-23T00:04:43;101190.28;;;22.48;44.90
17254;BME280;32542;52.832;13.816;2023-05-23T00:07:47;101177.88;;;22.47;44.93
17254;BME280;32542;52.832;13.816;2023-05-23T00:10:50;101187.59;;;22.48;44.87
17254;BME280;32542;52.832;13.816;2023-05-23T00:13:54;101179.59;;;22.48;44.76
17254;BME280;32542;52.832;13.816;2023-05-23T00:16:58;101178.72;;;22.48;44.90
17254;BME280;32542;52.832;13.816;2023-05-23T00:20:01;101178.81;;;22.46;45.03
17254;BME280;32542;52.832;13.816;2023-05-23T00:23:06;101170.88;;;22.45;45.00
17254;BME280;32542;52.832;13.816;2023-05-23T00:26:10;101169.09;;;22.45;44.88
17254;BME280;32542;52.832;13.816;2023-05-23T00:29:19;101170.97;;;22.43;44.98
17254;BME280;32542;52.832;13.816;2023-05-23T00:32:22;101162.00;;;22.44;44.91
17254;BME280;32542;52.832;13.816;2023-05-23T00:35:26;101159.25;;;22.46;44.90
17254;BME280;32542;52.832;13.816;2023-05-23T00:38:30;101165.53;;;22.45;44.98
17254;BME280;32542;52.832;13.816;2023-05-23T00:41:33;101161.09;;;22.45;45.06
17254;BME280;32542;52.832;13.816;2023-05-23T00:44:36;101158.41;;;22.45;45.02
17254;BME280;32542;52.832;13.816;2023-05-23T00:47:40;101161.09;;;22.45;45.09
17254;BME280;32542;52.832;13.816;2023-05-23T00:50:44;101161.13;;;22.44;45.03
17254;BME280;32542;52.832;13.816;2023-05-23T00:53:49;101165.63;;;22.43;45.08
17254;BME280;32542;52.832;13.816;2023-05-23T00:56:52;101167.34;;;22.44;44.90
17254;BME280;32542;52.832;13.816;2023-05-23T00:59:55;101162.97;;;22.43;45.03
17254;BME280;32542;52.832;13.816;2023-05-23T01:02:58;101158.47;;;22.44;45.01
17254;BME280;32542;52.832;13.816;2023-05-23T01:06:02;101158.56;;;22.42;45.09
17254;BME280;32542;52.832;13.816;2023-05-23T01:09:07;101161.31;;;22.41;45.17
17254;BME280;32542;52.832;13.816;2023-05-23T01:12:17;101155.09;;;22.40;45.03
17254;BME280;32542;52.832;13.816;2023-05-23T01:15:26;101155.09;;;22.40;45.19
17254;BME280;32542;52.832;13.816;2023-05-23T01:18:35;101156.88;;;22.40;45.00
17254;BME280;32542;52.832;13.816;2023-05-23T01:21:39;101159.56;;;22.40;45.10
17254;BME280;32542;52.832;13.816;2023-05-23T01:24:50;101147.97;;;22.41;45.12
17254;BME280;32542;52.832;13.816;2023-05-23T01:28:00;101142.69;;;22.39;45.09
17254;BME280;32542;52.832;13.816;2023-05-23T01:31:06;101136.53;;;22.37;45.09
17254;BME280;32542;52.832;13.816;2023-05-23T01:34:12;101135.63;;;22.38;45.19
17254;BME280;32542;52.832;13.816;2023-05-23T01:37:16;101128.53;;;22.37;45.22
17254;BME280;32542;52.832;13.816;2023-05-23T01:40:20;101126.75;;;22.38;45.11
17254;BME280;32542;52.832;13.816;2023-05-23T01:43:25;101124.16;;;22.36;45.23
17254;BME280;32542;52.832;13.816;2023-05-23T01:46:28;101126.84;;;22.36;45.23
17254;BME280;32542;52.832;13.816;2023-05-23T01:49:33;101125.09;;;22.35;45.25
17254;BME280;32542;52.832;13.816;2023-05-23T01:52:37;101126.84;;;22.36;45.13
17254;BME280;32542;52.832;13.816;2023-05-23T01:55:41;101117.03;;;22.37;45.17
17254;BME280;32542;52.832;13.816;2023-05-23T01:58:46;101115.19;;;22.37;45.11
17254;BME280;32542;52.832;13.816;2023-05-23T02:01:49;101113.41;;;22.38;45.08
17254;BME280;32542;52.832;13.816;2023-05-23T02:04:53;101111.69;;;22.37;45.06
17254;BME280;32542;52.832;13.816;2023-05-23T02:07:58;101105.47;;;22.36;45.19
17254;BME280;32542;52.832;13.816;2023-05-23T02:11:01;101101.06;;;22.35;45.21
17254;BME280;32542;52.832;13.816;2023-05-23T02:14:05;101109.06;;;22.35;45.24
17254;BME280;32542;52.832;13.816;2023-05-23T02:17:08;101098.41;;;22.35;45.31
17254;BME280;32542;52.832;13.816;2023-05-23T02:20:11;101095.81;;;22.34;45.27
17254;BME280;32542;52.832;13.816;2023-05-23T02:23:15;101094.94;;;22.33;45.29
17254;BME280;32542;52.832;13.816;2023-05-23T02:26:18;101100.28;;;22.33;45.24
17254;BME280;32542;52.832;13.816;2023-05-23T02:29:22;101101.16;;;22.34;45.17
17254;BME280;32542;52.832;13.816;2023-05-23T02:32:25;101100.28;;;22.33;45.18
17254;BME280;32542;52.832;13.816;2023-05-23T02:35:30;101105.63;;;22.33;45.28
17254;BME280;32542;52.832;13.816;2023-05-23T02:38:33;101094.09;;;22.33;45.14
17254;BME280;32542;52.832;13.816;2023-05-23T02:41:35;101101.16;;;22.34;45.17
17254;BME280;32542;52.832;13.816;2023-05-23T02:44:40;101102.03;;;22.34;45.22
17254;BME280;32542;52.832;13.816;2023-05-23T02:47:43;101087.81;;;22.34;45.19
17254;BME280;32542;52.832;13.816;2023-05-23T02:50:46;101094.09;;;22.33;45.17
17254;BME280;32542;52.832;13.816;2023-05-23T02:53:49;101088.78;;;22.33;45.17
17254;BME280;32542;52.832;13.816;2023-05-23T02:56:52;101093.25;;;22.32;45.24
17254;BME280;32542;52.832;13.816;2023-05-23T02:59:57;101086.16;;;22.31;45.18
17254;BME280;32542;52.832;13.816;2023-05-23T03:03:01;101085.31;;;22.31;45.24
17254;BME280;32542;52.832;13.816;2023-05-23T03:06:04;101090.66;;;22.31;45.26
17254;BME280;32542;52.832;13.816;2023-05-23T03:09:08;101087.13;;;22.30;45.37
17254;BME280;32542;52.832;13.816;2023-05-23T03:12:11;101079.09;;;22.30;45.30
17254;BME280;32542;52.832;13.816;2023-05-23T03:15:15;101089.78;;;22.30;45.22
17254;BME280;32542;52.832;13.816;2023-05-23T03:18:19;101088.81;;;22.31;45.23
17254;BME280;32542;52.832;13.816;2023-05-23T03:21:22;101093.25;;;22.32;45.17
17254;BME280;32542;52.832;13.816;2023-05-23T03:24:24;101089.69;;;22.32;45.17
17254;BME280;32542;52.832;13.816;2023-05-23T03:27:27;101087.91;;;22.32;45.18
17254;BME280;32542;52.832;13.816;2023-05-23T03:30:32;101078.16;;;22.31;45.27
17254;BME280;32542;52.832;13.816;2023-05-23T03:33:34;101081.78;;;22.30;45.17
17254;BME280;32542;52.832;13.816;2023-05-23T03:36:40;101084.44;;;22.30;45.22
17254;BME280;32542;52.832;13.816;2023-05-23T03:39:43;101082.69;;;22.29;45.27
17254;BME280;32542;52.832;13.816;2023-05-23T03:42:47;101088.91;;;22.30;45.23
17254;BME280;32542;52.832;13.816;2023-05-23T03:45:52;101083.56;;;22.30;45.31
17254;BME280;32542;52.832;13.816;2023-05-23T03:48:55;101082.69;;;22.29;45.26
17254;BME280;32542;52.832;13.816;2023-05-23T03:51:58;101082.69;;;22.29;45.22
17254;BME280;32542;52.832;13.816;2023-05-23T03:55:03;101073.81;;;22.29;45.25
17254;BME280;32542;52.832;13.816;2023-05-23T03:58:05;101078.25;;;22.30;45.25
17254;BME280;32542;52.832;13.816;2023-05-23T04:01:10;101076.44;;;22.30;45.32
17254;BME280;32542;52.832;13.816;2023-05-23T04:04:13;101076.44;;;22.30;45.15
17254;BME280;32542;52.832;13.816;2023-05-23T04:07:17;101079.97;;;22.31;45.18
17254;BME280;32542;52.832;13.816;2023-05-23T04:10:20;101086.16;;;22.31;45.28
17254;BME280;32542;52.832;13.816;2023-05-23T04:13:23;101089.78;;;22.30;45.22
17254;BME280;32542;52.832;13.816;2023-05-23T04:16:28;101076.44;;;22.30;45.27
17254;BME280;32542;52.832;13.816;2023-05-23T04:19:34;101077.38;;;22.29;45.40
17254;BME280;32542;52.832;13.816;2023-05-23T04:22:37;101072.91;;;22.30;45.25
17254;BME280;32542;52.832;13.816;2023-05-23T04:25:40;101067.66;;;22.28;45.24
17254;BME280;32542;52.832;13.816;2023-05-23T04:28:55;101071.16;;;22.29;45.33
17254;BME280;32542;52.832;13.816;2023-05-23T04:31:59;101064.97;;;22.28;45.36
17254;BME280;32542;52.832;13.816;2023-05-23T04:35:02;101071.16;;;22.29;45.30
17254;BME280;32542;52.832;13.816;2023-05-23T04:38:08;101066.69;;;22.29;45.37
17254;BME280;32542;52.832;13.816;2023-05-23T04:41:11;101059.56;;;22.30;45.26
17254;BME280;32542;52.832;13.816;2023-05-23T04:44:17;101056.88;;;22.30;45.15
17254;BME280;32542;52.832;13.816;2023-05-23T04:47:29;101054.22;;;22.30;45.22
17254;BME280;32542;52.832;13.816;2023-05-23T04:50:41;101056.03;;;22.29;45.26
17254;BME280;32542;52.832;13.816;2023-05-23T04:53:45;101050.69;;;22.29;45.19
17254;BME280;32542;52.832;13.816;2023-05-23T04:56:48;101056.03;;;22.29;45.29
17254;BME280;32542;52.832;13.816;2023-05-23T04:59:53;101041.81;;;22.29;45.27
17254;BME280;32542;52.832;13.816;2023-05-23T05:02:58;101037.34;;;22.29;45.41
17254;BME280;32542;52.832;13.816;2023-05-23T05:06:04;101043.63;;;22.28;45.36
17254;BME280;32542;52.832;13.816;2023-05-23T05:09:07;101045.44;;;22.28;45.23
17254;BME280;32542;52.832;13.816;2023-05-23T05:12:10;101048.97;;;22.28;45.34
17254;BME280;32542;52.832;13.816;2023-05-23T05:15:15;101043.63;;;22.28;45.35
17254;BME280;32542;52.832;13.816;2023-05-23T05:18:22;101051.63;;;22.28;45.37
17254;BME280;32542;52.832;13.816;2023-05-23T05:21:25;101051.63;;;22.28;45.22
17254;BME280;32542;52.832;13.816;2023-05-23T05:24:28;101045.44;;;22.28;45.37
17254;BME280;32542;52.832;13.816;2023-05-23T05:27:32;101040.00;;;22.29;45.37
17254;BME280;32542;52.832;13.816;2023-05-23T05:30:35;101038.31;;;22.28;45.32
17254;BME280;32542;52.832;13.816;2023-05-23T05:33:40;101048.09;;;22.28;45.19
17254;BME280;32542;52.832;13.816;2023-05-23T05:36:48;101047.13;;;22.29;45.38
17254;BME280;32542;52.832;13.816;2023-05-23T05:39:52;101048.09;;;22.28;45.21
17254;BME280;32542;52.832;13.816;2023-05-23T05:42:55;101043.63;;;22.28;45.33
17254;BME280;32542;52.832;13.816;2023-05-23T05:45:59;101046.31;;;22.28;45.23
17254;BME280;32542;52.832;13.816;2023-05-23T05:49:03;101060.47;;;22.29;45.29
17254;BME280;32542;52.832;13.816;2023-05-23T05:52:07;101055.22;;;22.27;45.27
17254;BME280;32542;52.832;13.816;2023-05-23T05:55:10;101054.31;;;22.28;45.28
17254;BME280;32542;52.832;13.816;2023-05-23T05:58:18;101052.56;;;22.27;45.31
17254;BME280;32542;52.832;13.816;2023-05-23T06:01:27;101046.34;;;22.27;45.26
17254;BME280;32542;52.832;13.816;2023-05-23T06:04:32;101049.03;;;22.27;45.15
17254;BME280;32542;52.832;13.816;2023-05-23T06:07:35;101048.09;;;22.28;45.28
17254;BME280;32542;52.832;13.816;2023-05-23T06:10:39;101049.81;;;22.29;45.28
17254;BME280;32542;52.832;13.816;2023-05-23T06:13:43;101043.63;;;22.28;45.20
17254;BME280;32542;52.832;13.816;2023-05-23T06:16:46;101038.31;;;22.28;45.36
17254;BME280;32542;52.832;13.816;2023-05-23T06:19:51;101038.34;;;22.27;45.25
17254;BME280;32542;52.832;13.816;2023-05-23T06:22:54;101033.88;;;22.27;45.28
17254;BME280;32542;52.832;13.816;2023-05-23T06:25:57;101037.44;;;22.28;45.14
17254;BME280;32542;52.832;13.816;2023-05-23T06:29:00;101035.69;;;22.27;45.19
17254;BME280;32542;52.832;13.816;2023-05-23T06:32:03;101039.22;;;22.27;45.28
17254;BME280;32542;52.832;13.816;2023-05-23T06:35:08;101041.91;;;22.27;45.14
17254;BME280;32542;52.832;13.816;2023-05-23T06:38:11;101039.22;;;22.27;45.26
17254;BME280;32542;52.832;13.816;2023-05-23T06:41:18;101032.09;;;22.28;45.25
17254;BME280;32542;52.832;13.816;2023-05-23T06:44:21;101033.00;;;22.27;45.20
17254;BME280;32542;52.832;13.816;2023-05-23T06:47:27;101031.22;;;22.27;45.35
17254;BME280;32542;52.832;13.816;2023-05-23T06:50:32;101038.31;;;22.28;45.31
17254;BME280;32542;52.832;13.816;2023-05-23T06:53:35;101047.22;;;22.27;45.22
17254;BME280;32542;52.832;13.816;2023-05-23T06:56:38;101046.31;;;22.28;45.28
17254;BME280;32542;52.832;13.816;2023-05-23T06:59:41;101044.56;;;22.27;45.19
17254;BME280;32542;52.832;13.816;2023-05-23T07:02:45;101042.75;;;22.28;45.22
17254;BME280;32542;52.832;13.816;2023-05-23T07:05:54;101045.44;;;22.28;45.28
17254;BME280;32542;52.832;13.816;2023-05-23T07:08:57;101041.91;;;22.27;45.30
17254;BME280;32542;52.832;13.816;2023-05-23T07:12:01;101043.63;;;22.28;45.28
17254;BME280;32542;52.832;13.816;2023-05-23T07:15:05;101045.34;;;22.29;45.50
17254;BME280;32542;52.832;13.816;2023-05-23T07:18:14;101035.47;;;22.31;45.62
17254;BME280;32542;52.832;13.816;2023-05-23T07:21:18;101038.91;;;22.33;45.78
17254;BME280;32542;52.832;13.816;2023-05-23T07:24:22;101042.38;;;22.35;45.89
17254;BME280;32542;52.832;13.816;2023-05-23T07:27:28;101033.44;;;22.36;45.83
17254;BME280;32542;52.832;13.816;2023-05-23T07:30:32;101036.91;;;22.38;46.12
17254;BME280;32542;52.832;13.816;2023-05-23T07:33:35;101031.56;;;22.38;46.09
17254;BME280;32542;52.832;13.816;2023-05-23T07:36:40;101026.13;;;22.40;45.95
17254;BME280;32542;52.832;13.816;2023-05-23T07:39:46;101034.09;;;22.41;46.12
17254;BME280;32542;52.832;13.816;2023-05-23T07:42:49;101027.00;;;22.40;45.88
17254;BME280;32542;52.832;13.816;2023-05-23T07:45:53;101033.13;;;22.42;46.33
17254;BME280;32542;52.832;13.816;2023-05-23T07:48:56;101035.78;;;22.42;46.19
17254;BME280;32542;52.832;13.816;2023-05-23T07:52:00;101037.53;;;22.43;46.34
17254;BME280;32542;52.832;13.816;2023-05-23T07:55:07;101025.03;;;22.44;46.30
17254;BME280;32542;52.832;13.816;2023-05-23T07:58:10;101023.22;;;22.44;46.23
17254;BME280;32542;52.832;13.816;2023-05-23T08:01:15;101028.56;;;22.44;46.25
17254;BME280;32542;52.832;13.816;2023-05-23T08:04:32;101023.22;;;22.44;46.17
17254;BME280;32542;52.832;13.816;2023-05-23T08:07:39;101032.19;;;22.43;46.18
17254;BME280;32542;52.832;13.816;2023-05-23T08:10:44;101030.47;;;22.42;46.18
17254;BME280;32542;52.832;13.816;2023-05-23T08:13:54;101040.25;;;22.42;45.92
17254;BME280;32542;52.832;13.816;2023-05-23T08:17:16;101039.41;;;22.41;45.79
17254;BME280;32542;52.832;13.816;2023-05-23T08:20:20;101041.22;;;22.41;45.61
17254;BME280;32542;52.832;13.816;2023-05-23T08:23:24;101048.34;;;22.40;45.49
17254;BME280;32542;52.832;13.816;2023-05-23T08:26:27;101048.34;;;22.40;45.38
17254;BME280;32542;52.832;13.816;2023-05-23T08:29:37;101053.69;;;22.40;45.44
17254;BME280;32542;52.832;13.816;2023-05-23T08:32:40;101049.28;;;22.39;45.34
17254;BME280;32542;52.832;13.816;2023-05-23T08:35:43;101040.44;;;22.39;45.33
17254;BME280;32542;52.832;13.816;2023-05-23T08:38:50;101051.09;;;22.39;45.30
17254;BME280;32542;52.832;13.816;2023-05-23T08:41:59;101052.91;;;22.38;45.12
17254;BME280;32542;52.832;13.816;2023-05-23T08:45:03;101057.38;;;22.38;45.25
17254;BME280;32542;52.832;13.816;2023-05-23T08:48:07;101053.81;;;22.37;45.24
17254;BME280;32542;52.832;13.816;2023-05-23T08:51:16;101054.78;;;22.36;45.12
17254;BME280;32542;52.832;13.816;2023-05-23T08:54:23;101053.03;;;22.35;44.92
17254;BME280;32542;52.832;13.816;2023-05-23T08:57:26;101048.66;;;22.34;45.11
17254;BME280;32542;52.832;13.816;2023-05-23T09:00:36;101049.53;;;22.35;45.49
17254;BME280;32542;52.832;13.816;2023-05-23T09:03:40;101046.91;;;22.33;45.75
17254;BME280;32542;52.832;13.816;2023-05-23T09:07:17;101048.66;;;22.34;45.54
17254;BME280;32542;52.832;13.816;2023-05-23T09:10:24;101056.66;;;22.34;45.48
17254;BME280;32542;52.832;13.816;2023-05-23T09:13:32;101056.59;;;22.36;45.36
17254;BME280;32542;52.832;13.816;2023-05-23T09:16:38;101058.47;;;22.34;45.36
17254;BME280;32542;52.832;13.816;2023-05-23T09:19:46;101052.25;;;22.33;45.32
17254;BME280;32542;52.832;13.816;2023-05-23T09:23:10;101061.22;;;22.32;45.09
17254;BME280;32542;52.832;13.816;2023-05-23T09:26:16;101052.56;;;22.27;44.15
17254;BME280;32542;52.832;13.816;2023-05-23T09:29:19;101068.00;;;22.21;44.59
17254;BME280;32542;52.832;13.816;2023-05-23T09:32:22;101067.31;;;22.17;44.43
17254;BME280;32542;52.832;13.816;2023-05-23T09:35:27;101060.22;;;22.16;44.85
17254;BME280;32542;52.832;13.816;2023-05-23T09:38:30;101061.00;;;22.18;44.65
17254;BME280;32542;52.832;13.816;2023-05-23T09:41:35;101057.34;;;22.21;44.64
17254;BME280;32542;52.832;13.816;2023-05-23T09:44:40;101060.75;;;22.24;44.67
17254;BME280;32542;52.832;13.816;2023-05-23T09:47:48;101059.66;;;22.28;44.83
17254;BME280;32542;52.832;13.816;2023-05-23T09:50:52;101056.81;;;22.31;44.78
17254;BME280;32542;52.832;13.816;2023-05-23T09:53:56;101051.41;;;22.33;44.82
17254;BME280;32542;52.832;13.816;2023-05-23T09:57:01;101052.13;;;22.36;44.86
17254;BME280;32542;52.832;13.816;2023-05-23T10:00:07;101053.00;;;22.37;44.99
17254;BME280;32542;52.832;13.816;2023-05-23T10:03:15;101052.91;;;22.38;44.99
17254;BME280;32542;52.832;13.816;2023-05-23T10:06:23;101051.03;;;22.40;44.91
17254;BME280;32542;52.832;13.816;2023-05-23T10:09:30;101059.81;;;22.42;45.17
17254;BME280;32542;52.832;13.816;2023-05-23T10:12:44;101058.00;;;22.43;45.36
17254;BME280;32542;52.832;13.816;2023-05-23T10:15:50;101044.59;;;22.44;45.28
17254;BME280;32542;52.832;13.816;2023-05-23T10:18:57;101045.38;;;22.46;45.37
17254;BME280;32542;52.832;13.816;2023-05-23T10:22:05;101048.81;;;22.48;45.38
17254;BME280;32542;52.832;13.816;2023-05-23T10:25:08;101046.16;;;22.48;45.24
17254;BME280;32542;52.832;13.816;2023-05-23T10:28:14;101042.56;;;22.49;45.40
17254;BME280;32542;52.832;13.816;2023-05-23T10:31:17;101044.28;;;22.50;45.38
17254;BME280;32542;52.832;13.816;2023-05-23T10:34:26;101039.72;;;22.52;45.27
17254;BME280;32542;52.832;13.816;2023-05-23T10:37:37;101040.69;;;22.51;45.24
17254;BME280;32542;52.832;13.816;2023-05-23T10:40:49;101038.88;;;22.52;45.37
17254;BME280;32542;52.832;13.816;2023-05-23T10:44:09;101039.66;;;22.54;45.44
17254;BME280;32542;52.832;13.816;2023-05-23T10:47:24;101039.56;;;22.56;45.59
17254;BME280;32542;52.832;13.816;2023-05-23T10:50:31;101037.78;;;22.56;45.59
17254;BME280;32542;52.832;13.816;2023-05-23T10:53:35;101037.69;;;22.58;45.93
17254;BME280;32542;52.832;13.816;2023-05-23T10:56:39;101035.91;;;22.58;45.96
17254;BME280;32542;52.832;13.816;2023-05-23T10:59:43;101037.63;;;22.59;46.14
17254;BME280;32542;52.832;13.816;2023-05-23T11:02:52;101040.25;;;22.61;46.38
17254;BME280;32542;52.832;13.816;2023-05-23T11:05:57;101039.28;;;22.62;46.55
17254;BME280;32542;52.832;13.816;2023-05-23T11:09:04;101031.19;;;22.63;46.66
17254;BME280;32542;52.832;13.816;2023-05-23T11:12:08;101034.75;;;22.64;46.59
17254;BME280;32542;52.832;13.816;2023-05-23T11:15:19;101032.94;;;22.64;46.55
17254;BME280;32542;52.832;13.816;2023-05-23T11:18:25;101027.50;;;22.66;46.54
17254;BME280;32542;52.832;13.816;2023-05-23T11:21:29;101025.81;;;22.65;46.71
17254;BME280;32542;52.832;13.816;2023-05-23T11:24:48;101030.19;;;22.66;46.64
17254;BME280;32542;52.832;13.816;2023-05-23T11:27:52;101031.91;;;22.67;46.84
17254;BME280;32542;52.832;13.816;2023-05-23T11:30:57;101022.09;;;22.67;46.72
17254;BME280;32542;52.832;13.816;2023-05-23T11:34:00;101028.28;;;22.68;46.83
17254;BME280;32542;52.832;13.816;2023-05-23T11:37:03;101018.50;;;22.68;47.11
17254;BME280;32542;52.832;13.816;2023-05-23T11:40:26;101019.28;;;22.70;47.10
17254;BME280;32542;52.832;13.816;2023-05-23T11:43:30;101024.59;;;22.70;47.20
17254;BME280;32542;52.832;13.816;2023-05-23T11:46:34;101025.47;;;22.71;47.22
17254;BME280;32542;52.832;13.816;2023-05-23T11:49:38;101020.13;;;22.71;47.19
17254;BME280;32542;52.832;13.816;2023-05-23T11:52:42;101024.59;;;22.70;47.40
17254;BME280;32542;52.832;13.816;2023-05-23T11:55:48;101019.28;;;22.70;47.35
17254;BME280;32542;52.832;13.816;2023-05-23T11:58:55;101019.28;;;22.70;47.31
17254;BME280;32542;52.832;13.816;2023-05-23T12:02:00;101023.69;;;22.71;47.50
17254;BME280;32542;52.832;13.816;2023-05-23T12:05:07;101030.72;;;22.72;47.56
17254;BME280;32542;52.832;13.816;2023-05-23T12:08:11;101022.63;;;22.74;47.56
17254;BME280;32542;52.832;13.816;2023-05-23T12:11:14;101021.69;;;22.75;47.45
17254;BME280;32542;52.832;13.816;2023-05-23T12:14:19;101027.91;;;22.75;47.52
17254;BME280;32542;52.832;13.816;2023-05-23T12:17:23;101027.91;;;22.75;47.50
17254;BME280;32542;52.832;13.816;2023-05-23T12:20:27;101028.75;;;22.76;47.61
17254;BME280;32542;52.832;13.816;2023-05-23T12:23:33;101035.84;;;22.77;47.59
17254;BME280;32542;52.832;13.816;2023-05-23T12:26:45;101032.22;;;22.78;47.63
17254;BME280;32542;52.832;13.816;2023-05-23T12:29:54;101033.94;;;22.79;47.57
17254;BME280;32542;52.832;13.816;2023-05-23T12:33:08;101035.69;;;22.80;47.60
17254;BME280;32542;52.832;13.816;2023-05-23T12:36:12;101025.84;;;22.80;47.54
17254;BME280;32542;52.832;13.816;2023-05-23T12:39:15;101039.16;;;22.82;47.54
17254;BME280;32542;52.832;13.816;2023-05-23T12:42:18;101036.47;;;22.82;47.57
17254;BME280;32542;52.832;13.816;2023-05-23T12:45:22;101046.19;;;22.83;47.72
17254;BME280;32542;52.832;13.816;2023-05-23T12:48:26;101046.19;;;22.83;47.52
17254;BME280;32542;52.832;13.816;2023-05-23T12:51:29;101047.06;;;22.83;47.79
17254;BME280;32542;52.832;13.816;2023-05-23T12:54:32;101042.59;;;22.84;47.56
17254;BME280;32542;52.832;13.816;2023-05-23T12:57:35;101042.59;;;22.84;47.83
17254;BME280;32542;52.832;13.816;2023-05-23T13:00:38;101040.75;;;22.84;47.62
17254;BME280;32542;52.832;13.816;2023-05-23T13:03:42;101048.78;;;22.84;47.72
17254;BME280;32542;52.832;13.816;2023-05-23T13:06:45;101047.84;;;22.85;47.75
17254;BME280;32542;52.832;13.816;2023-05-23T13:09:48;101046.06;;;22.86;47.69
17254;BME280;32542;52.832;13.816;2023-05-23T13:12:51;101060.19;;;22.88;47.85
17254;BME280;32542;52.832;13.816;2023-05-23T13:15:54;101052.16;;;22.88;47.65
17254;BME280;32542;52.832;13.816;2023-05-23T13:18:59;101064.56;;;22.89;47.71
17254;BME280;32542;52.832;13.816;2023-05-23T13:22:02;101067.19;;;22.90;47.65
17254;BME280;32542;52.832;13.816;2023-05-23T13:25:06;101075.19;;;22.90;47.82
17254;BME280;32542;52.832;13.816;2023-05-23T13:28:09;101077.78;;;22.92;47.69
17254;BME280;32542;52.832;13.816;2023-05-23T13:31:12;101075.09;;;22.92;47.76
17254;BME280;32542;52.832;13.816;2023-05-23T13:34:16;101075.00;;;22.93;47.89
17254;BME280;32542;52.832;13.816;2023-05-23T13:37:19;101070.53;;;22.94;47.78
17254;BME280;32542;52.832;13.816;2023-05-23T13:40:22;101081.22;;;22.94;47.89
17254;BME280;32542;52.832;13.816;2023-05-23T13:43:25;101086.56;;;22.94;47.80
17254;BME280;32542;52.832;13.816;2023-05-23T13:46:28;101087.44;;;22.94;47.63
17254;BME280;32542;52.832;13.816;2023-05-23T13:49:32;101093.63;;;22.95;47.75
17254;BME280;32542;52.832;13.816;2023-05-23T13:52:35;101095.38;;;22.96;47.79
17254;BME280;32542;52.832;13.816;2023-05-23T13:55:41;101098.03;;;22.96;47.72
17254;BME280;32542;52.832;13.816;2023-05-23T13:58:44;101093.47;;;22.98;47.71
17254;BME280;32542;52.832;13.816;2023-05-23T14:01:47;101091.72;;;22.97;47.86
17254;BME280;32542;52.832;13.816;2023-05-23T14:04:51;101093.47;;;22.98;47.87
17254;BME280;32542;52.832;13.816;2023-05-23T14:07:54;101099.69;;;22.98;47.84
17254;BME280;32542;52.832;13.816;2023-05-23T14:10:57;101098.81;;;22.98;47.80
17254;BME280;32542;52.832;13.816;2023-05-23T14:14:00;101103.28;;;22.97;47.76
17254;BME280;32542;52.832;13.816;2023-05-23T14:17:04;101099.75;;;22.97;47.78
17254;BME280;32542;52.832;13.816;2023-05-23T14:20:09;101107.75;;;22.97;48.12
17254;BME280;32542;52.832;13.816;2023-05-23T14:23:12;101105.09;;;22.97;47.93
17254;BME280;32542;52.832;13.816;2023-05-23T14:26:14;101106.97;;;22.95;47.99
17254;BME280;32542;52.832;13.816;2023-05-23T14:29:17;101115.00;;;22.95;48.14
17254;BME280;32542;52.832;13.816;2023-05-23T14:32:21;101115.00;;;22.95;48.02
17254;BME280;32542;52.832;13.816;2023-05-23T14:35:25;101125.66;;;22.95;48.22
17254;BME280;32542;52.832;13.816;2023-05-23T14:38:30;101123.09;;;22.93;47.94
17254;BME280;32542;52.832;13.816;2023-05-23T14:41:32;101118.63;;;22.94;48.09
17254;BME280;32542;52.832;13.816;2023-05-23T14:44:36;101129.22;;;22.95;48.19
17254;BME280;32542;52.832;13.816;2023-05-23T14:47:39;101125.66;;;22.95;48.39
17254;BME280;32542;52.832;13.816;2023-05-23T14:50:43;101131.88;;;22.95;48.94
17254;BME280;32542;52.832;13.816;2023-05-23T14:53:46;101125.66;;;22.95;49.29
17254;BME280;32542;52.832;13.816;2023-05-23T14:56:49;101131.88;;;22.95;49.19
17254;BME280;32542;52.832;13.816;2023-05-23T14:59:54;101144.31;;;22.96;48.84
17254;BME280;32542;52.832;13.816;2023-05-23T15:02:56;101144.31;;;22.96;48.65
17254;BME280;32542;52.832;13.816;2023-05-23T15:06:01;101137.22;;;22.95;48.56
17254;BME280;32542;52.832;13.816;2023-05-23T15:09:04;101143.44;;;22.96;48.64
17254;BME280;32542;52.832;13.816;2023-05-23T15:12:08;101144.38;;;22.95;48.34
17254;BME280;32542;52.832;13.816;2023-05-23T15:15:11;101146.13;;;22.96;48.57
17254;BME280;32542;52.832;13.816;2023-05-23T15:18:14;101155.91;;;22.95;48.53
17254;BME280;32542;52.832;13.816;2023-05-23T15:21:33;101155.06;;;22.95;48.62
17254;BME280;32542;52.832;13.816;2023-05-23T15:24:36;101159.47;;;22.96;48.38
17254;BME280;32542;52.832;13.816;2023-05-23T15:27:41;101157.72;;;22.95;48.32
17254;BME280;32542;52.832;13.816;2023-05-23T15:30:45;101161.34;;;22.94;48.55
17254;BME280;32542;52.832;13.816;2023-05-23T15:33:48;101161.34;;;22.94;48.31
17254;BME280;32542;52.832;13.816;2023-05-23T15:36:52;101166.69;;;22.94;48.35
17254;BME280;32542;52.832;13.816;2023-05-23T15:39:56;101166.69;;;22.94;48.36
17254;BME280;32542;52.832;13.816;2023-05-23T15:42:59;101178.31;;;22.93;48.27
17254;BME280;32542;52.832;13.816;2023-05-23T15:46:03;101173.91;;;22.92;48.31
17254;BME280;32542;52.832;13.816;2023-05-23T15:49:06;101180.97;;;22.93;48.19
17254;BME280;32542;52.832;13.816;2023-05-23T15:52:27;101185.53;;;22.91;48.21
17254;BME280;32542;52.832;13.816;2023-05-23T15:55:30;101202.34;;;22.93;48.25